Time;durP1;ratioP1;P1;durP2;ratioP2;P2;SDS_P1;SDS_P2;PMS_P1;PMS_P2;Temp;Humidity;BMP_temperature;BMP_pressure;BME280_temperature;BME280_humidity;BME280_pressure;Samples;Min_cycle;Max_cycle;Signal;HPM_P1;HPM_P2
2020/12/15 00:01:59;;;;;;;112.28;56.38;;;4.80;94.90;;;;;;5093232;28;20035;-80
2020/12/15 00:04:28;;;;;;;93.22;47.72;;;4.70;94.80;;;;;;5093274;28;20444;-80
2020/12/15 00:06:54;;;;;;;67.45;33.72;;;4.70;94.90;;;;;;5093520;28;20032;-81
2020/12/15 00:09:19;;;;;;;74.38;36.65;;;4.70;94.70;;;;;;5094346;28;20063;-81
2020/12/15 00:11:45;;;;;;;101.30;50.17;;;4.70;94.90;;;;;;5092908;28;20107;-80
2020/12/15 00:14:11;;;;;;;83.85;42.85;;;4.70;94.90;;;;;;5093167;28;20047;-80
2020/12/15 00:16:37;;;;;;;78.80;39.80;;;4.70;94.80;;;;;;5094067;28;20040;-81
2020/12/15 00:19:03;;;;;;;97.50;47.75;;;4.80;95.00;;;;;;5094371;28;20059;-82
2020/12/15 00:21:29;;;;;;;91.28;44.55;;;4.80;94.70;;;;;;5093331;28;20349;-81
2020/12/15 00:23:55;;;;;;;78.55;37.67;;;4.90;94.50;;;;;;5094198;28;20077;-80
2020/12/15 00:26:23;;;;;;;96.55;43.25;;;4.90;94.40;;;;;;5094264;28;20082;-80
2020/12/15 00:28:49;;;;;;;73.97;37.30;;;4.90;94.30;;;;;;5093118;28;20510;-81
2020/12/15 00:31:16;;;;;;;80.22;39.92;;;4.90;94.40;;;;;;5092574;28;20052;-80
2020/12/15 00:33:43;;;;;;;130.95;61.08;;;4.90;94.50;;;;;;5094196;28;20028;-80
2020/12/15 00:36:09;;;;;;;123.70;57.80;;;4.90;94.30;;;;;;5094111;28;20055;-81
2020/12/15 00:38:35;;;;;;;81.55;39.75;;;4.90;94.20;;;;;;5092966;28;20383;-80
2020/12/15 00:41:01;;;;;;;129.25;64.60;;;4.90;94.20;;;;;;5092941;28;20089;-81
2020/12/15 00:43:27;;;;;;;92.93;45.45;;;4.90;94.30;;;;;;5093013;28;20056;-81
2020/12/15 00:45:52;;;;;;;110.53;56.67;;;4.80;94.30;;;;;;5093926;28;20028;-80
2020/12/15 00:48:18;;;;;;;123.40;62.35;;;4.80;94.30;;;;;;5092770;28;20075;-81
2020/12/15 00:50:44;;;;;;;152.60;81.75;;;4.90;94.40;;;;;;5092577;28;20028;-81
2020/12/15 00:53:10;;;;;;;81.55;41.33;;;5.00;94.30;;;;;;5092784;28;20031;-81
2020/12/15 00:55:36;;;;;;;89.65;45.97;;;4.90;94.10;;;;;;5093609;28;20059;-80
2020/12/15 00:58:02;;;;;;;83.13;41.92;;;5.00;94.10;;;;;;5092740;28;20456;-81
2020/12/15 01:00:27;;;;;;;76.57;40.08;;;5.00;94.10;;;;;;5093953;28;20060;-80
2020/12/15 01:02:53;;;;;;;78.70;39.88;;;5.00;94.00;;;;;;5093984;28;20020;-81
2020/12/15 01:05:19;;;;;;;110.95;58.53;;;5.00;94.00;;;;;;5092652;28;20031;-81
2020/12/15 01:07:46;;;;;;;81.82;43.25;;;5.00;93.90;;;;;;5092584;28;20028;-81
2020/12/15 01:10:12;;;;;;;139.38;69.70;;;5.00;94.00;;;;;;5093928;28;20085;-80
2020/12/15 01:12:38;;;;;;;145.00;72.82;;;5.00;94.00;;;;;;5092534;28;20097;-84
2020/12/15 01:15:04;;;;;;;68.40;34.72;;;5.00;94.20;;;;;;5094072;28;20479;-80
2020/12/15 01:17:29;;;;;;;71.13;36.13;;;5.00;94.20;;;;;;5097618;28;20085;-81
2020/12/15 01:19:57;;;;;;;116.53;72.13;;;5.00;94.10;;;;;;5096336;28;20115;-80
2020/12/15 01:22:22;;;;;;;88.38;48.67;;;5.00;94.10;;;;;;5096645;28;20039;-81
2020/12/15 01:24:48;;;;;;;86.53;43.97;;;5.00;94.20;;;;;;5096803;28;20024;-82
2020/12/15 01:27:14;;;;;;;77.18;40.53;;;4.90;94.30;;;;;;5097898;28;20452;-79
2020/12/15 01:29:40;;;;;;;70.03;36.53;;;4.90;94.20;;;;;;5096351;28;20024;-80
2020/12/15 01:32:05;;;;;;;93.65;49.95;;;5.00;94.30;;;;;;5098300;28;20413;-81
2020/12/15 01:34:31;;;;;;;72.18;40.10;;;5.00;94.30;;;;;;5095924;28;20028;-80
2020/12/15 01:37:02;;;;;;;65.20;35.60;;;5.00;94.20;;;;;;5097731;28;20028;-80
2020/12/15 01:39:27;;;;;;;68.78;39.35;;;5.00;94.00;;;;;;5097641;28;20028;-81
2020/12/15 01:41:53;;;;;;;68.47;37.58;;;5.00;94.10;;;;;;5095683;28;20024;-81
2020/12/15 01:44:19;;;;;;;62.30;31.77;;;5.00;94.20;;;;;;5096058;28;20032;-81
2020/12/15 01:46:44;;;;;;;63.72;30.08;;;5.10;94.10;;;;;;5095887;28;20024;-81
2020/12/15 01:49:10;;;;;;;87.65;46.45;;;5.10;94.00;;;;;;5096594;28;20035;-81
2020/12/15 01:51:36;;;;;;;69.35;34.70;;;5.00;94.10;;;;;;5095818;28;20024;-81
2020/12/15 01:54:03;;;;;;;68.78;36.85;;;5.00;94.20;;;;;;5095709;28;20391;-81
2020/12/15 01:56:29;;;;;;;58.67;28.20;;;5.00;94.20;;;;;;5095804;28;20468;-81
2020/12/15 01:59:03;;;;;;;55.95;28.02;;;5.00;94.20;;;;;;5095860;28;20060;-81
2020/12/15 02:01:29;;;;;;;59.47;29.77;;;5.00;94.10;;;;;;5095438;28;20024;-80
2020/12/15 02:03:55;;;;;;;84.07;45.45;;;5.10;94.00;;;;;;5095700;28;20115;-81
2020/12/15 02:06:22;;;;;;;96.75;52.17;;;5.10;94.10;;;;;;5095589;28;20444;-81
2020/12/15 02:08:49;;;;;;;207.90;117.57;;;5.00;94.10;;;;;;5095100;28;20052;-82
2020/12/15 02:11:15;;;;;;;97.20;54.60;;;5.00;94.30;;;;;;5095607;28;20031;-82
2020/12/15 02:13:41;;;;;;;75.88;39.97;;;5.00;94.30;;;;;;5095609;28;20055;-81
2020/12/15 02:16:11;;;;;;;120.32;69.88;;;5.00;94.40;;;;;;5096714;28;20111;-81
2020/12/15 02:18:38;;;;;;;100.63;54.55;;;5.00;94.30;;;;;;5095839;28;20036;-81
2020/12/15 02:21:09;;;;;;;79.97;41.55;;;5.00;94.30;;;;;;5095584;28;20020;-81
2020/12/15 02:23:35;;;;;;;73.88;38.40;;;5.00;94.20;;;;;;5095352;28;20031;-81
2020/12/15 02:26:02;;;;;;;69.07;33.78;;;5.00;94.40;;;;;;5095431;28;20024;-80
2020/12/15 02:28:28;;;;;;;61.40;34.58;;;5.00;94.20;;;;;;5094610;28;20035;-81
2020/12/15 02:30:54;;;;;;;69.63;37.55;;;5.00;94.20;;;;;;5095119;28;20173;-81
2020/12/15 02:33:20;;;;;;;57.10;31.13;;;5.00;94.10;;;;;;5096512;28;20099;-81
2020/12/15 02:35:46;;;;;;;53.40;29.17;;;5.00;94.10;;;;;;5094836;28;20032;-81
2020/12/15 02:38:12;;;;;;;52.38;28.67;;;5.00;94.10;;;;;;5095136;28;20031;-81
2020/12/15 02:40:37;;;;;;;55.35;27.25;;;5.00;94.10;;;;;;5094903;28;20028;-81
2020/12/15 02:43:03;;;;;;;50.65;25.85;;;5.00;94.00;;;;;;5094914;28;20028;-81
2020/12/15 02:45:29;;;;;;;51.17;27.00;;;5.10;93.90;;;;;;5094944;28;20070;-81
2020/12/15 02:47:55;;;;;;;48.70;25.80;;;5.00;94.00;;;;;;5094884;28;20032;-82
2020/12/15 02:50:22;;;;;;;46.92;26.85;;;4.90;94.30;;;;;;5094705;28;20052;-80
2020/12/15 02:52:48;;;;;;;51.00;26.40;;;4.90;94.30;;;;;;5094964;28;20027;-81
2020/12/15 02:55:14;;;;;;;58.40;29.73;;;5.00;94.20;;;;;;5096128;28;20028;-82
2020/12/15 02:57:40;;;;;;;57.72;31.15;;;5.00;94.10;;;;;;5094671;28;20035;-81
2020/12/15 03:00:17;;;;;;;57.78;30.60;;;5.00;94.00;;;;;;5094757;28;20464;-81
2020/12/15 03:02:43;;;;;;;61.67;31.10;;;5.10;94.10;;;;;;5094795;28;20024;-81
2020/12/15 03:05:09;;;;;;;49.60;26.50;;;5.10;94.10;;;;;;5095477;28;20035;-81
2020/12/15 03:07:35;;;;;;;46.80;25.90;;;5.10;93.90;;;;;;5094577;28;20024;-82
2020/12/15 03:10:03;;;;;;;49.88;25.63;;;5.10;93.90;;;;;;5095569;28;20034;-81
2020/12/15 03:12:29;;;;;;;48.65;25.77;;;5.20;93.90;;;;;;5094324;28;20032;-81
2020/12/15 03:14:55;;;;;;;48.70;25.42;;;5.20;93.80;;;;;;5094624;28;20180;-81
2020/12/15 03:17:21;;;;;;;49.92;24.85;;;5.20;93.80;;;;;;5094357;28;20031;-82
2020/12/15 03:19:46;;;;;;;51.58;27.13;;;5.20;93.90;;;;;;5094344;28;20028;-82
2020/12/15 03:22:17;;;;;;;50.60;26.15;;;5.20;93.80;;;;;;5095097;28;20032;-81
2020/12/15 03:24:42;;;;;;;57.95;28.15;;;5.20;93.70;;;;;;5094550;28;20028;-82
2020/12/15 03:27:08;;;;;;;56.50;28.85;;;5.10;93.70;;;;;;5094377;28;20097;-81
2020/12/15 03:29:34;;;;;;;59.40;30.13;;;5.20;93.80;;;;;;5093934;28;20038;-81
2020/12/15 03:32:00;;;;;;;62.72;32.67;;;5.10;93.80;;;;;;5094702;28;20119;-82
2020/12/15 03:34:26;;;;;;;57.42;33.05;;;5.10;93.90;;;;;;5094142;28;20480;-81
2020/12/15 03:36:52;;;;;;;55.83;28.40;;;5.10;93.60;;;;;;5093984;28;20059;-81
2020/12/15 03:39:18;;;;;;;58.80;29.77;;;5.10;93.70;;;;;;5092620;28;20028;-81
2020/12/15 03:41:44;;;;;;;75.88;40.13;;;5.10;93.70;;;;;;5094578;28;20118;-81
2020/12/15 03:44:10;;;;;;;60.03;31.48;;;5.00;94.00;;;;;;5094477;28;20115;-81
2020/12/15 03:46:36;;;;;;;73.07;36.55;;;5.10;93.80;;;;;;5093761;28;20089;-81
2020/12/15 03:49:01;;;;;;;72.10;37.72;;;5.00;93.80;;;;;;5093851;28;20073;-80
2020/12/15 03:51:27;;;;;;;68.85;37.28;;;5.00;93.80;;;;;;5093712;28;20524;-82
2020/12/15 03:53:53;;;;;;;65.95;34.88;;;5.00;93.90;;;;;;5094650;28;20020;-82
2020/12/15 03:56:19;;;;;;;62.63;33.20;;;5.00;93.90;;;;;;5094196;28;20024;-82
2020/12/15 03:58:45;;;;;;;68.53;35.85;;;5.00;93.90;;;;;;5094037;28;20464;-81
2020/12/15 04:01:10;;;;;;;62.67;33.10;;;5.00;94.00;;;;;;5093416;28;20459;-82
2020/12/15 04:03:36;;;;;;;63.85;33.95;;;5.00;93.80;;;;;;5093917;28;20036;-82
2020/12/15 04:06:02;;;;;;;65.53;35.03;;;5.00;93.90;;;;;;5093330;28;20032;-82
2020/12/15 04:08:28;;;;;;;63.47;33.20;;;5.00;93.70;;;;;;5093418;28;20032;-82
2020/12/15 04:10:54;;;;;;;64.10;34.45;;;5.10;93.80;;;;;;5093474;28;20024;-82
2020/12/15 04:13:20;;;;;;;59.95;30.63;;;5.10;93.80;;;;;;5093481;28;20048;-81
2020/12/15 04:15:46;;;;;;;58.05;30.17;;;5.00;93.70;;;;;;5094304;28;20050;-81
2020/12/15 04:18:12;;;;;;;59.75;30.48;;;5.10;93.70;;;;;;5094501;28;20028;-82
2020/12/15 04:20:38;;;;;;;64.85;31.67;;;5.10;93.70;;;;;;5093029;28;20484;-81
2020/12/15 04:23:03;;;;;;;57.78;31.08;;;5.10;93.80;;;;;;5093511;28;20024;-81
2020/12/15 04:25:29;;;;;;;63.47;32.90;;;5.00;93.70;;;;;;5093191;28;20520;-81
2020/12/15 04:27:55;;;;;;;65.00;33.28;;;5.00;93.70;;;;;;5093078;28;20142;-81
2020/12/15 04:30:21;;;;;;;62.63;32.25;;;5.00;93.90;;;;;;5093157;28;20435;-81
2020/12/15 04:32:47;;;;;;;63.75;32.55;;;5.10;93.90;;;;;;5093233;28;20047;-81
2020/12/15 04:35:13;;;;;;;65.70;32.53;;;5.10;93.70;;;;;;5094069;28;20028;-81
2020/12/15 04:37:39;;;;;;;63.30;31.02;;;5.10;93.60;;;;;;5093023;28;20050;-82
2020/12/15 04:40:05;;;;;;;67.63;33.13;;;5.10;93.70;;;;;;5093011;28;20379;-81
2020/12/15 04:42:32;;;;;;;59.58;30.67;;;5.10;93.70;;;;;;5092823;28;20028;-81
2020/12/15 04:44:59;;;;;;;62.53;31.60;;;5.10;93.80;;;;;;5093120;28;20119;-81
2020/12/15 04:47:32;;;;;;;60.95;31.23;;;5.10;93.70;;;;;;5093444;28;20050;-81
2020/12/15 04:50:03;;;;;;;59.78;31.48;;;5.10;93.70;;;;;;5092834;28;20395;-81
2020/12/15 04:52:38;;;;;;;65.43;33.10;;;5.10;93.60;;;;;;5092721;28;20120;-81
2020/12/15 04:55:04;;;;;;;68.65;34.25;;;5.10;93.50;;;;;;5092909;28;20063;-81
2020/12/15 04:57:30;;;;;;;68.70;33.15;;;5.10;93.60;;;;;;5093934;28;20060;-81
2020/12/15 04:59:59;;;;;;;70.53;35.33;;;5.10;93.70;;;;;;5092914;28;20039;-81
2020/12/15 05:02:25;;;;;;;66.70;35.08;;;5.00;93.70;;;;;;5092845;28;20029;-81
2020/12/15 05:04:52;;;;;;;81.57;40.67;;;5.00;93.70;;;;;;5092324;28;20028;-81
2020/12/15 05:07:18;;;;;;;71.88;35.85;;;5.00;93.80;;;;;;5093984;28;20066;-81
2020/12/15 05:09:46;;;;;;;74.07;36.58;;;5.00;93.70;;;;;;5092717;28;20521;-82
2020/12/15 05:12:12;;;;;;;77.43;38.17;;;5.00;93.80;;;;;;5092850;28;20028;-80
2020/12/15 05:14:38;;;;;;;73.15;37.70;;;5.00;93.90;;;;;;5092738;28;20024;-81
2020/12/15 05:17:04;;;;;;;70.18;36.33;;;5.00;93.80;;;;;;5092539;28;20098;-81
2020/12/15 05:19:30;;;;;;;74.53;36.25;;;5.00;93.90;;;;;;5093596;28;20363;-81
2020/12/15 05:21:55;;;;;;;72.97;35.90;;;5.00;94.20;;;;;;5093055;28;20519;-82
2020/12/15 05:24:29;;;;;;;73.68;36.65;;;5.00;93.80;;;;;;5092495;28;20456;-81
2020/12/15 05:26:59;;;;;;;98.38;49.03;;;5.00;93.90;;;;;;5092698;28;20123;-81
2020/12/15 05:29:25;;;;;;;74.80;37.63;;;5.00;93.80;;;;;;5093556;28;20016;-81
2020/12/15 05:31:52;;;;;;;70.95;36.28;;;5.00;93.90;;;;;;5092255;28;20048;-81
2020/12/15 05:34:27;;;;;;;73.50;37.88;;;5.00;93.70;;;;;;5092514;28;20058;-81
2020/12/15 05:36:58;;;;;;;67.63;36.15;;;5.00;93.70;;;;;;5092491;28;20035;-81
2020/12/15 05:39:25;;;;;;;76.05;37.40;;;5.00;93.70;;;;;;5092314;28;20028;-81
2020/12/15 05:42:09;;;;;;;72.55;37.90;;;5.00;93.70;;;;;;5092370;28;20024;-81
2020/12/15 05:44:37;;;;;;;76.75;38.67;;;5.00;93.80;;;;;;5093905;28;20043;-82
2020/12/15 05:47:05;;;;;;;77.72;38.33;;;5.00;93.90;;;;;;5092236;28;20032;-82
2020/12/15 05:49:32;;;;;;;81.63;40.05;;;4.90;94.10;;;;;;5092654;28;20114;-82
2020/12/15 05:52:00;;;;;;;72.22;35.65;;;4.90;94.00;;;;;;5092513;28;20028;-81
2020/12/15 05:54:27;;;;;;;87.07;43.58;;;4.90;94.00;;;;;;5092333;28;20032;-81
2020/12/15 05:57:06;;;;;;;75.50;39.25;;;4.90;94.00;;;;;;5092149;28;20118;-81
2020/12/15 05:59:34;;;;;;;85.15;43.55;;;5.00;94.00;;;;;;5092138;28;20247;-81
2020/12/15 06:02:07;;;;;;;84.30;45.17;;;5.00;94.00;;;;;;5093625;28;20025;-82
2020/12/15 06:04:34;;;;;;;101.60;51.33;;;5.00;93.90;;;;;;5096463;28;20032;-82
2020/12/15 06:07:04;;;;;;;115.32;59.72;;;5.00;93.90;;;;;;5095805;28;20032;-82
2020/12/15 06:09:31;;;;;;;110.45;55.85;;;5.00;93.90;;;;;;5095825;28;20023;-82
2020/12/15 06:11:57;;;;;;;85.13;43.80;;;4.90;94.00;;;;;;5095821;28;20020;-81
2020/12/15 06:14:25;;;;;;;85.28;44.35;;;4.90;94.00;;;;;;5095775;28;20455;-82
2020/12/15 06:16:51;;;;;;;84.28;41.67;;;4.90;94.20;;;;;;5095487;28;20119;-81
2020/12/15 06:19:19;;;;;;;81.72;43.53;;;4.90;94.10;;;;;;5095535;28;20435;-81
2020/12/15 06:21:56;;;;;;;81.75;41.83;;;4.90;94.10;;;;;;5095090;28;20020;-82
2020/12/15 06:24:39;;;;;;;88.55;43.42;;;4.90;94.00;;;;;;5095656;28;20020;-82
2020/12/15 06:27:08;;;;;;;82.30;41.95;;;4.90;94.20;;;;;;5095257;28;20043;-81
2020/12/15 06:29:37;;;;;;;81.50;43.20;;;4.90;94.30;;;;;;5094552;28;20027;-81
2020/12/15 06:32:09;;;;;;;90.00;45.17;;;4.80;94.50;;;;;;5095453;28;20027;-82
2020/12/15 06:34:35;;;;;;;92.90;47.53;;;4.80;94.50;;;;;;5095113;28;20073;-78
2020/12/15 06:37:00;;;;;;;102.85;54.08;;;4.80;94.50;;;;;;5095037;28;20035;-82
2020/12/15 06:39:30;;;;;;;99.40;51.00;;;4.80;94.50;;;;;;5095209;28;20024;-78
2020/12/15 06:42:06;;;;;;;97.88;51.60;;;4.90;94.40;;;;;;5094912;28;20024;-80
2020/12/15 06:44:36;;;;;;;97.22;49.72;;;4.90;94.20;;;;;;5095167;28;20028;-78
2020/12/15 06:47:06;;;;;;;139.25;64.70;;;4.90;94.40;;;;;;5095077;28;20028;-81
2020/12/15 06:49:37;;;;;;;107.97;49.55;;;4.90;94.30;;;;;;5095078;28;20028;-80
2020/12/15 06:52:06;;;;;;;97.25;47.33;;;4.90;94.50;;;;;;5095227;28;20051;-86
2020/12/15 06:54:38;;;;;;;101.38;45.55;;;4.80;94.60;;;;;;5095888;28;20486;-80
2020/12/15 06:57:09;;;;;;;95.63;45.58;;;4.70;94.90;;;;;;5094782;28;20028;-82
2020/12/15 06:59:37;;;;;;;91.95;44.88;;;4.80;94.90;;;;;;5095083;28;20028;-81
2020/12/15 07:02:10;;;;;;;104.35;50.85;;;4.80;94.60;;;;;;5093912;28;20066;-82
2020/12/15 07:04:47;;;;;;;100.28;49.17;;;4.90;94.40;;;;;;5094479;28;20464;-82
2020/12/15 07:07:15;;;;;;;100.25;50.53;;;4.90;94.50;;;;;;5094427;28;20122;-82
2020/12/15 07:09:45;;;;;;;93.13;44.78;;;4.90;94.40;;;;;;5093375;28;20024;-82
2020/12/15 07:12:15;;;;;;;87.60;43.90;;;5.00;94.30;;;;;;5093898;28;20030;-82
2020/12/15 07:14:49;;;;;;;117.07;52.67;;;5.00;94.30;;;;;;5094893;28;20429;-82
2020/12/15 07:17:15;;;;;;;105.63;49.95;;;5.00;94.10;;;;;;5095085;28;20067;-81
2020/12/15 07:19:41;;;;;;;97.13;47.97;;;5.00;94.20;;;;;;5094503;28;20031;-83
2020/12/15 07:22:07;;;;;;;103.93;50.13;;;5.00;94.10;;;;;;5094184;28;20024;-82
2020/12/15 07:24:32;;;;;;;103.78;50.75;;;5.00;94.10;;;;;;5094270;28;20031;-83
2020/12/15 07:27:02;;;;;;;103.07;47.53;;;5.00;94.10;;;;;;5094538;28;20438;-82
2020/12/15 07:29:28;;;;;;;100.95;47.38;;;5.00;94.00;;;;;;5094412;28;20024;-82
2020/12/15 07:31:55;;;;;;;105.68;50.85;;;5.00;94.10;;;;;;5093967;28;20054;-82
2020/12/15 07:34:21;;;;;;;96.18;49.17;;;5.00;94.20;;;;;;5094005;28;20024;-82
2020/12/15 07:36:48;;;;;;;98.25;49.50;;;4.90;94.40;;;;;;5094099;28;20035;-80
2020/12/15 07:39:15;;;;;;;90.50;47.20;;;5.00;94.40;;;;;;5095371;28;20034;-83
2020/12/15 07:41:41;;;;;;;94.60;47.17;;;5.00;94.40;;;;;;5094109;28;20020;-82
2020/12/15 07:44:12;;;;;;;93.75;45.90;;;4.90;94.60;;;;;;5095086;28;20115;-78
2020/12/15 07:46:45;;;;;;;95.20;46.33;;;4.90;94.60;;;;;;5094018;28;20471;-80
2020/12/15 07:49:11;;;;;;;103.82;50.03;;;4.80;94.70;;;;;;5094002;28;20059;-79
2020/12/15 07:51:43;;;;;;;169.25;90.25;;;4.90;94.90;;;;;;5093645;28;20032;-79
2020/12/15 07:54:10;;;;;;;113.82;61.63;;;4.90;94.80;;;;;;5094996;28;20153;-81
2020/12/15 07:56:36;;;;;;;141.30;75.82;;;4.90;94.70;;;;;;5093521;28;20024;-80
2020/12/15 07:59:02;;;;;;;109.35;62.20;;;4.90;94.60;;;;;;5093267;28;20031;-77
2020/12/15 08:01:30;;;;;;;132.00;69.15;;;5.00;94.20;;;;;;5093571;28;20020;-80
2020/12/15 08:04:08;;;;;;;149.07;79.00;;;5.00;94.30;;;;;;5093558;28;20545;-82
2020/12/15 08:06:38;;;;;;;126.05;67.25;;;5.10;94.10;;;;;;5093381;28;20027;-82
2020/12/15 08:09:06;;;;;;;151.15;76.60;;;5.20;94.10;;;;;;5093596;28;20028;-82
2020/12/15 08:11:33;;;;;;;102.03;53.13;;;5.20;93.90;;;;;;5094615;28;20035;-80
2020/12/15 08:14:03;;;;;;;154.55;74.72;;;5.20;93.40;;;;;;5093051;28;20094;-80
2020/12/15 08:16:29;;;;;;;105.75;52.80;;;5.30;94.00;;;;;;5093504;28;20502;-82
2020/12/15 08:19:03;;;;;;;91.70;46.70;;;5.30;93.50;;;;;;5093374;28;20594;-84
2020/12/15 08:21:50;;;;;;;98.53;52.42;;;5.30;93.40;;;;;;5093661;28;20020;-83
2020/12/15 08:24:22;;;;;;;90.05;47.92;;;5.20;93.10;;;;;;5094649;28;20040;-82
2020/12/15 08:26:48;;;;;;;86.07;44.33;;;5.20;92.80;;;;;;5092628;28;20114;-84
2020/12/15 08:29:14;;;;;;;118.13;58.78;;;5.30;93.00;;;;;;5093418;28;20418;-84
2020/12/15 08:31:42;;;;;;;110.13;53.92;;;5.40;93.20;;;;;;5092987;28;20055;-83
2020/12/15 08:34:21;;;;;;;92.00;49.15;;;5.40;92.80;;;;;;5093055;28;20529;-80
2020/12/15 08:36:49;;;;;;;111.18;58.92;;;5.40;92.40;;;;;;5093145;28;20028;-82
2020/12/15 08:39:18;;;;;;;84.60;48.15;;;5.50;92.80;;;;;;5093290;28;20036;-82
2020/12/15 08:41:48;;;;;;;82.32;44.72;;;5.50;92.60;;;;;;5092822;28;20024;-82
2020/12/15 08:44:16;;;;;;;83.90;45.88;;;5.60;92.40;;;;;;5092395;28;20028;-82
2020/12/15 08:46:42;;;;;;;71.90;41.03;;;5.60;91.90;;;;;;5092214;28;20016;-80
2020/12/15 08:49:16;;;;;;;66.07;36.17;;;5.70;91.60;;;;;;5092314;28;20077;-81
2020/12/15 08:51:50;;;;;;;84.13;46.92;;;5.70;91.40;;;;;;5091533;28;20031;-80
2020/12/15 08:54:19;;;;;;;78.45;44.00;;;5.70;91.40;;;;;;5092140;28;20059;-86
2020/12/15 08:56:46;;;;;;;76.53;41.58;;;5.70;91.20;;;;;;5092877;28;20024;-82
2020/12/15 08:59:20;;;;;;;64.18;35.97;;;5.80;91.70;;;;;;5093153;28;20024;-82
2020/12/15 09:01:47;;;;;;;51.75;32.70;;;5.90;91.60;;;;;;5094153;28;20034;-82
2020/12/15 09:04:24;;;;;;;55.15;34.88;;;5.90;91.10;;;;;;5092839;28;20497;-82
2020/12/15 09:06:50;;;;;;;53.70;30.33;;;6.00;91.60;;;;;;5093115;28;20032;-79
2020/12/15 09:09:16;;;;;;;65.15;37.38;;;6.00;90.90;;;;;;5092605;28;20025;-80
2020/12/15 09:11:41;;;;;;;61.75;35.30;;;5.90;90.90;;;;;;5092538;28;20028;-81
2020/12/15 09:14:07;;;;;;;53.10;32.33;;;5.90;90.50;;;;;;5093966;28;20048;-83
2020/12/15 09:16:37;;;;;;;67.00;37.13;;;5.90;91.20;;;;;;5092608;28;20433;-82
2020/12/15 09:19:16;;;;;;;75.03;38.00;;;6.00;90.40;;;;;;5092821;28;20085;-80
2020/12/15 09:21:54;;;;;;;56.92;32.45;;;6.00;89.80;;;;;;5092218;28;20074;-82
2020/12/15 09:24:20;;;;;;;67.68;34.90;;;6.00;90.20;;;;;;5091988;28;20044;-84
2020/12/15 09:26:46;;;;;;;63.10;36.00;;;6.00;90.60;;;;;;5091837;28;20055;-80
2020/12/15 09:29:12;;;;;;;62.58;35.03;;;6.10;90.70;;;;;;5092077;28;20123;-80
2020/12/15 09:31:44;;;;;;;56.40;31.40;;;6.10;90.20;;;;;;5093525;28;20048;-78
2020/12/15 09:34:10;;;;;;;54.03;29.45;;;6.20;90.60;;;;;;5092486;28;20047;-81
2020/12/15 09:36:36;;;;;;;42.45;25.08;;;6.10;90.70;;;;;;5092723;28;20067;-81
2020/12/15 09:39:04;;;;;;;43.15;25.23;;;6.10;90.10;;;;;;5096064;28;20032;-79
2020/12/15 09:41:35;;;;;;;45.03;26.02;;;6.20;90.70;;;;;;5096205;28;20024;-82
2020/12/15 09:44:01;;;;;;;53.10;28.75;;;6.10;89.30;;;;;;5097577;28;20436;-82
2020/12/15 09:46:27;;;;;;;50.63;28.40;;;6.10;88.80;;;;;;5096385;28;20055;-72
2020/12/15 09:48:52;;;;;;;38.33;21.92;;;6.10;90.00;;;;;;5096974;28;20028;-70
2020/12/15 09:51:18;;;;;;;34.60;21.25;;;6.10;89.30;;;;;;5095604;28;20460;-70
2020/12/15 09:53:44;;;;;;;55.38;32.38;;;6.00;89.50;;;;;;5097040;28;20473;-69
2020/12/15 09:56:16;;;;;;;54.25;31.70;;;6.10;89.40;;;;;;5097035;28;20020;-69
2020/12/15 09:58:41;;;;;;;34.75;22.17;;;6.20;90.00;;;;;;5095355;28;20077;-69
2020/12/15 10:01:07;;;;;;;69.60;36.28;;;6.10;87.50;;;;;;5096934;28;20020;-70
2020/12/15 10:03:33;;;;;;;137.80;61.67;;;6.20;87.90;;;;;;5095503;28;20084;-69
2020/12/15 10:05:58;;;;;;;95.45;47.90;;;6.10;88.20;;;;;;5095171;28;20073;-70
2020/12/15 10:08:24;;;;;;;140.75;70.75;;;6.10;88.00;;;;;;5095200;28;20028;-70
2020/12/15 10:10:50;;;;;;;86.55;45.92;;;6.10;88.40;;;;;;5094839;28;20024;-71
2020/12/15 10:13:16;;;;;;;88.07;49.63;;;6.20;88.00;;;;;;5096589;28;20529;-69
2020/12/15 10:15:42;;;;;;;82.22;45.47;;;6.10;88.20;;;;;;5095295;28;20483;-71
2020/12/15 10:18:09;;;;;;;82.00;40.80;;;6.20;88.30;;;;;;5094846;28;20452;-70
2020/12/15 10:20:36;;;;;;;76.85;46.17;;;6.20;88.20;;;;;;5095248;28;20119;-71
2020/12/15 10:23:02;;;;;;;66.57;34.70;;;6.20;87.70;;;;;;5096519;28;20027;-70
2020/12/15 10:25:28;;;;;;;122.82;61.97;;;6.20;89.40;;;;;;5096159;28;20034;-71
2020/12/15 10:27:53;;;;;;;88.47;40.30;;;6.20;88.40;;;;;;5096165;28;20111;-70
2020/12/15 10:30:19;;;;;;;71.97;35.72;;;6.20;88.80;;;;;;5094817;28;20044;-70
2020/12/15 10:32:45;;;;;;;98.70;47.08;;;6.30;89.60;;;;;;5096018;28;20069;-70
2020/12/15 10:35:11;;;;;;;114.43;59.55;;;6.20;88.00;;;;;;5096279;28;20028;-70
2020/12/15 10:37:36;;;;;;;48.13;25.98;;;6.20;87.60;;;;;;5096163;28;20056;-72
2020/12/15 10:40:03;;;;;;;60.55;36.90;;;6.20;88.80;;;;;;5094823;28;20032;-71
2020/12/15 10:42:29;;;;;;;39.08;23.40;;;6.30;89.50;;;;;;5094893;28;20456;-70
2020/12/15 10:44:55;;;;;;;50.47;32.92;;;6.30;89.60;;;;;;5096292;28;20027;-73
2020/12/15 10:47:21;;;;;;;39.03;24.25;;;6.30;88.40;;;;;;5094489;28;20039;-70
2020/12/15 10:49:47;;;;;;;49.17;32.53;;;6.30;89.70;;;;;;5094573;28;20020;-71
2020/12/15 10:52:13;;;;;;;56.22;36.17;;;6.40;88.80;;;;;;5094714;28;20353;-71
2020/12/15 10:54:38;;;;;;;66.65;42.95;;;6.30;88.70;;;;;;5095606;28;20024;-72
2020/12/15 10:57:05;;;;;;;57.58;37.22;;;6.30;88.30;;;;;;5094448;28;20464;-71
2020/12/15 10:59:31;;;;;;;67.30;39.95;;;6.30;88.40;;;;;;5095515;28;20039;-72
2020/12/15 11:01:56;;;;;;;55.38;31.80;;;6.20;89.00;;;;;;5094174;28;20115;-72
2020/12/15 11:04:22;;;;;;;48.08;29.60;;;6.30;90.00;;;;;;5094443;28;20062;-71
2020/12/15 11:06:48;;;;;;;42.85;25.58;;;6.20;89.10;;;;;;5094035;28;20030;-71
2020/12/15 11:09:14;;;;;;;50.22;30.02;;;6.20;89.70;;;;;;5095939;28;20027;-71
2020/12/15 11:11:48;;;;;;;47.90;29.80;;;6.30;89.70;;;;;;5093916;28;20052;-72
2020/12/15 11:14:15;;;;;;;48.70;29.95;;;6.30;89.60;;;;;;5092318;28;20020;-71
2020/12/15 11:16:40;;;;;;;74.90;47.33;;;6.40;90.20;;;;;;5092494;28;20031;-71
2020/12/15 11:19:06;;;;;;;50.33;33.53;;;6.30;89.30;;;;;;5092655;28;20456;-70
2020/12/15 11:21:32;;;;;;;45.10;29.85;;;6.20;87.50;;;;;;5093585;28;20031;-72
2020/12/15 11:23:58;;;;;;;38.50;24.67;;;6.20;88.30;;;;;;5094040;28;20456;-73
2020/12/15 11:26:23;;;;;;;32.67;21.40;;;6.20;89.80;;;;;;5095144;28;20028;-73
2020/12/15 11:28:49;;;;;;;61.78;42.50;;;6.30;90.10;;;;;;5095116;28;20440;-73
2020/12/15 11:31:15;;;;;;;33.72;22.30;;;6.30;89.90;;;;;;5093443;28;20507;-73
2020/12/15 11:33:42;;;;;;;43.38;28.13;;;6.30;89.20;;;;;;5095729;28;20020;-72
2020/12/15 11:36:09;;;;;;;86.95;49.47;;;6.30;89.90;;;;;;5093549;28;20034;-73
2020/12/15 11:38:36;;;;;;;48.72;28.48;;;6.20;87.60;;;;;;5094764;28;20028;-72
2020/12/15 11:41:02;;;;;;;45.60;27.05;;;6.10;88.30;;;;;;5093265;28;20028;-72
2020/12/15 11:43:27;;;;;;;79.85;45.95;;;6.10;88.30;;;;;;5094414;28;20379;-72
2020/12/15 11:45:53;;;;;;;63.65;33.88;;;6.00;88.90;;;;;;5093521;28;20027;-73
2020/12/15 11:48:19;;;;;;;59.70;32.45;;;6.00;89.10;;;;;;5094802;28;20028;-72
2020/12/15 11:50:45;;;;;;;48.67;28.80;;;5.90;89.60;;;;;;5093204;28;20476;-73
2020/12/15 11:53:11;;;;;;;37.35;23.50;;;6.00;90.30;;;;;;5094425;28;20059;-72
2020/12/15 11:55:37;;;;;;;38.85;26.20;;;6.00;89.40;;;;;;5093181;28;20457;-73
2020/12/15 11:58:02;;;;;;;43.40;28.00;;;6.00;89.20;;;;;;5094159;28;20042;-73
2020/12/15 12:00:28;;;;;;;45.97;30.63;;;6.00;90.40;;;;;;5092371;28;20460;-73
2020/12/15 12:02:54;;;;;;;40.53;26.58;;;6.10;89.70;;;;;;5093088;28;20024;-73
2020/12/15 12:05:20;;;;;;;39.90;25.00;;;6.10;90.00;;;;;;5093463;28;20047;-72
2020/12/15 12:07:46;;;;;;;44.83;27.90;;;6.20;90.00;;;;;;5093281;28;20081;-71
2020/12/15 12:10:13;;;;;;;44.97;27.83;;;6.20;90.10;;;;;;5094199;28;20024;-72
2020/12/15 12:12:39;;;;;;;54.25;32.42;;;6.20;89.60;;;;;;5093091;28;20031;-73
2020/12/15 12:15:05;;;;;;;44.80;29.58;;;6.20;89.20;;;;;;5094378;28;20024;-73
2020/12/15 12:17:31;;;;;;;50.08;28.00;;;6.10;89.30;;;;;;5092870;28;20031;-74
2020/12/15 12:19:57;;;;;;;85.85;42.85;;;6.00;88.30;;;;;;5092920;28;20512;-73
2020/12/15 12:22:22;;;;;;;71.10;39.72;;;6.00;89.60;;;;;;5092871;28;20032;-72
2020/12/15 12:24:48;;;;;;;48.72;31.95;;;6.00;89.40;;;;;;5093372;28;20391;-72
2020/12/15 12:27:14;;;;;;;95.82;55.05;;;5.90;90.00;;;;;;5093968;28;20421;-72
2020/12/15 12:29:40;;;;;;;59.72;34.45;;;6.00;90.40;;;;;;5092583;28;20127;-72
2020/12/15 12:32:06;;;;;;;83.07;45.10;;;6.00;90.70;;;;;;5092849;28;20040;-72
2020/12/15 12:34:33;;;;;;;67.43;39.20;;;6.00;90.80;;;;;;5092991;28;20141;-73
2020/12/15 12:36:59;;;;;;;92.78;52.55;;;6.10;90.80;;;;;;5092757;28;20123;-72